createdAt,value
2022-10-17T00:02:11.165Z,80.83
2022-10-17T00:04:37.641Z,81.17
2022-10-17T00:07:03.994Z,81.69
2022-10-17T00:09:30.469Z,82.44
2022-10-17T00:11:57.000Z,81.63
2022-10-17T00:14:23.404Z,81.76
2022-10-17T00:16:52.762Z,81.83
2022-10-17T00:19:19.225Z,81.69
2022-10-17T00:21:45.729Z,82.26
2022-10-17T00:24:12.256Z,81.78
2022-10-17T00:26:38.628Z,81.87
2022-10-17T00:29:05.538Z,81.34
2022-10-17T00:31:32.665Z,81.20
2022-10-17T00:33:59.241Z,80.98
2022-10-17T00:36:26.184Z,81.42
2022-10-17T00:38:54.375Z,80.78
2022-10-17T00:41:22.334Z,80.63
2022-10-17T00:43:55.033Z,81.14
2022-10-17T00:46:22.631Z,81.46
2022-10-17T00:48:50.902Z,81.17
2022-10-17T00:51:20.040Z,81.51
2022-10-17T00:53:46.653Z,82.01
2022-10-17T00:56:13.208Z,82.59
2022-10-17T00:58:39.746Z,82.42
2022-10-17T01:01:06.265Z,82.54
2022-10-17T01:03:32.678Z,82.62
2022-10-17T01:05:59.683Z,81.35
2022-10-17T01:08:26.148Z,82.21
2022-10-17T01:11:16.181Z,82.73
2022-10-17T01:13:46.762Z,83.06
2022-10-17T01:16:34.589Z,81.59
2022-10-17T01:19:29.688Z,81.80
2022-10-17T01:21:56.223Z,81.97
2022-10-17T01:24:47.030Z,81.76
2022-10-17T01:27:26.087Z,81.96
2022-10-17T01:30:04.772Z,81.58
2022-10-17T01:32:46.217Z,82.71
2022-10-17T01:35:25.850Z,82.52
2022-10-17T01:37:55.296Z,81.13
2022-10-17T01:40:21.897Z,82.19
2022-10-17T01:42:48.173Z,83.30
2022-10-17T01:45:18.345Z,82.21
2022-10-17T01:47:46.949Z,81.85
2022-10-17T01:50:16.637Z,83.38
2022-10-17T01:52:46.741Z,83.55
2022-10-17T01:55:18.645Z,83.28
2022-10-17T01:57:47.921Z,83.72
2022-10-17T02:00:15.679Z,83.24
2022-10-17T02:02:43.538Z,82.29
2022-10-17T02:05:09.937Z,82.96
2022-10-17T02:07:36.229Z,84.05
2022-10-17T02:10:06.712Z,83.56
2022-10-17T02:12:51.744Z,82.51
2022-10-17T02:15:33.759Z,82.91
2022-10-17T02:18:02.833Z,83.80
2022-10-17T02:20:51.683Z,84.45
2022-10-17T02:23:33.639Z,84.58
2022-10-17T02:26:19.247Z,83.84
2022-10-17T02:29:04.411Z,84.47
2022-10-17T02:31:37.124Z,83.25
2022-10-17T02:34:09.237Z,82.46
2022-10-17T02:36:41.806Z,83.24
2022-10-17T02:39:09.582Z,84.48
2022-10-17T02:41:36.356Z,85.70
2022-10-17T02:44:03.594Z,85.24
2022-10-17T02:49:03.199Z,84.95
2022-10-17T02:51:33.294Z,84.73
2022-10-17T02:54:18.200Z,84.75
2022-10-17T02:56:53.601Z,84.76
2022-10-17T02:59:21.582Z,84.76
2022-10-17T03:01:49.190Z,85.42
2022-10-17T03:04:15.501Z,84.91
2022-10-17T03:06:42.059Z,84.10
2022-10-17T03:09:09.384Z,84.90
2022-10-17T03:11:35.707Z,84.74
2022-10-17T03:14:01.996Z,85.24
2022-10-17T03:16:28.378Z,85.16
2022-10-17T03:18:54.750Z,85.51
2022-10-17T03:21:21.059Z,85.40
2022-10-17T03:23:47.451Z,86.99
2022-10-17T03:26:13.854Z,88.13
2022-10-17T03:28:40.227Z,89.39
2022-10-17T03:31:07.798Z,89.90
2022-10-17T03:33:34.104Z,89.12
2022-10-17T03:36:04.583Z,88.87
2022-10-17T03:38:30.890Z,88.33
2022-10-17T03:40:57.186Z,89.77
2022-10-17T03:43:23.464Z,89.39
2022-10-17T03:45:49.799Z,90.39
2022-10-17T03:48:16.102Z,90.33
2022-10-17T03:50:42.472Z,90.51
2022-10-17T03:53:08.808Z,91.58
2022-10-17T03:55:35.260Z,90.56
2022-10-17T03:58:01.556Z,89.16
2022-10-17T04:00:27.874Z,89.17
2022-10-17T04:02:54.223Z,89.25
2022-10-17T04:05:20.565Z,89.08
2022-10-17T04:07:46.920Z,89.40
2022-10-17T04:10:13.225Z,89.63
2022-10-17T04:12:40.037Z,89.86
2022-10-17T04:15:06.804Z,90.04
2022-10-17T04:17:37.260Z,88.61
2022-10-17T04:20:04.880Z,87.08
2022-10-17T04:22:31.382Z,85.93
2022-10-17T04:24:57.834Z,87.38
2022-10-17T04:27:24.184Z,88.51
2022-10-17T04:29:50.546Z,89.06
2022-10-17T04:32:17.154Z,87.86
2022-10-17T04:34:43.497Z,87.96
2022-10-17T04:37:09.794Z,87.37
2022-10-17T04:39:36.109Z,88.22
2022-10-17T04:42:02.410Z,87.30
2022-10-17T04:44:30.856Z,88.20
2022-10-17T04:46:57.134Z,87.84
2022-10-17T04:49:23.408Z,88.51
2022-10-17T04:51:50.949Z,87.82
2022-10-17T04:54:17.238Z,88.02
2022-10-17T04:56:43.543Z,87.93
2022-10-17T04:59:09.846Z,89.48
2022-10-17T05:01:36.113Z,89.48
2022-10-17T05:04:02.554Z,89.67
2022-10-17T05:06:28.958Z,89.20
2022-10-17T05:08:55.449Z,88.72
2022-10-17T05:11:28.375Z,88.48
2022-10-17T05:13:59.047Z,88.49
2022-10-17T05:16:26.025Z,88.38
2022-10-17T05:18:53.881Z,88.49
2022-10-17T05:21:20.796Z,88.88
2022-10-17T05:23:47.434Z,88.84
2022-10-17T05:26:13.762Z,88.70
2022-10-17T05:28:40.171Z,88.71
2022-10-17T05:31:07.287Z,88.64
2022-10-17T05:33:33.969Z,88.64
2022-10-17T05:36:00.269Z,88.77
2022-10-17T05:38:26.748Z,89.15
2022-10-17T05:40:57.060Z,88.81
2022-10-17T05:43:23.449Z,88.50
2022-10-17T05:45:49.752Z,88.62
2022-10-17T05:48:16.220Z,89.03
2022-10-17T05:50:42.527Z,88.79
2022-10-17T05:53:08.883Z,89.60
2022-10-17T05:55:35.185Z,89.18
2022-10-17T05:58:01.668Z,88.75
2022-10-17T06:00:28.133Z,88.83
2022-10-17T06:02:54.493Z,88.57
2022-10-17T06:05:21.116Z,88.45
2022-10-17T06:07:49.179Z,88.51
2022-10-17T06:10:17.139Z,88.32
2022-10-17T06:12:43.869Z,88.45
2022-10-17T06:15:10.819Z,88.78
2022-10-17T06:17:37.373Z,88.33
2022-10-17T06:20:03.923Z,88.03
2022-10-17T06:22:30.751Z,88.64
2022-10-17T06:24:57.465Z,88.21
2022-10-17T06:27:23.808Z,88.27
2022-10-17T06:29:51.188Z,88.10
2022-10-17T06:32:17.695Z,88.03
2022-10-17T06:34:43.985Z,88.23
2022-10-17T06:37:10.281Z,88.09
2022-10-17T06:39:36.581Z,88.25
2022-10-17T06:42:03.861Z,88.38
2022-10-17T06:44:31.457Z,88.25
2022-10-17T06:46:58.624Z,88.00
2022-10-17T06:49:25.069Z,88.36
2022-10-17T06:51:51.733Z,88.47
2022-10-17T06:54:18.046Z,88.25
2022-10-17T06:56:44.367Z,88.76
2022-10-17T06:59:10.729Z,88.53
2022-10-17T07:01:41.796Z,88.13
2022-10-17T07:04:11.755Z,87.82
2022-10-17T07:06:38.636Z,87.85
2022-10-17T07:09:06.759Z,88.02
2022-10-17T07:11:34.992Z,87.79
2022-10-17T07:14:01.609Z,87.79
2022-10-17T07:16:28.085Z,87.74
2022-10-17T07:18:54.722Z,87.54
2022-10-17T07:21:21.345Z,87.27
2022-10-17T07:23:47.662Z,87.09
2022-10-17T07:26:14.877Z,87.29
2022-10-17T07:28:42.540Z,87.09
2022-10-17T07:31:10.837Z,87.35
2022-10-17T07:33:37.194Z,87.27
2022-10-17T07:36:04.326Z,87.09
2022-10-17T07:38:31.097Z,87.15
2022-10-17T07:40:58.247Z,86.81
2022-10-17T07:43:25.154Z,87.12
2022-10-17T07:45:52.026Z,86.84
2022-10-17T07:48:18.763Z,86.71
2022-10-17T07:50:45.049Z,86.96
2022-10-17T07:53:11.417Z,86.73
2022-10-17T07:55:38.491Z,86.60
2022-10-17T07:58:04.827Z,86.29
2022-10-17T08:00:31.295Z,85.97
2022-10-17T08:02:57.660Z,86.16
2022-10-17T08:05:23.978Z,85.84
2022-10-17T08:07:50.428Z,85.88
2022-10-17T08:10:17.138Z,85.98
2022-10-17T08:12:43.536Z,85.99
2022-10-17T08:15:10.102Z,85.90
2022-10-17T08:17:37.603Z,85.81
2022-10-17T08:20:04.937Z,86.07
2022-10-17T08:22:32.166Z,85.74
2022-10-17T08:24:58.586Z,85.90
2022-10-17T08:27:25.463Z,85.94
2022-10-17T08:29:54.746Z,85.98
2022-10-17T08:32:22.239Z,85.80
2022-10-17T08:34:48.533Z,85.80
2022-10-17T08:37:15.169Z,85.56
2022-10-17T08:39:42.184Z,85.53
2022-10-17T08:42:08.465Z,85.59
2022-10-17T08:44:53.796Z,85.52
2022-10-17T08:47:25.989Z,85.49
2022-10-17T08:49:53.973Z,85.30
2022-10-17T08:52:35.443Z,85.38
2022-10-17T08:55:01.769Z,85.82
2022-10-17T08:57:29.339Z,85.75
2022-10-17T08:59:56.784Z,86.00
2022-10-17T09:02:41.820Z,86.10
2022-10-17T09:05:27.062Z,86.12
2022-10-17T09:07:59.813Z,86.14
2022-10-17T09:10:32.291Z,86.69
2022-10-17T09:13:17.534Z,86.83
2022-10-17T09:16:10.257Z,86.90
2022-10-17T09:18:44.244Z,86.82
2022-10-17T09:21:23.133Z,87.32
2022-10-17T09:23:59.687Z,87.49
2022-10-17T09:26:35.818Z,87.29
2022-10-17T09:29:02.238Z,87.42
2022-10-17T09:31:30.943Z,87.49
2022-10-17T09:34:00.996Z,87.66
2022-10-17T09:36:29.339Z,87.98
2022-10-17T09:39:00.542Z,88.19
2022-10-17T09:44:29.969Z,87.86
2022-10-17T09:47:05.365Z,88.06
2022-10-17T09:49:33.198Z,88.18
2022-10-17T09:52:00.845Z,87.94
2022-10-17T09:54:41.270Z,87.85
2022-10-17T09:57:08.802Z,87.60
2022-10-17T09:59:37.136Z,88.04
2022-10-17T10:02:12.617Z,88.08
2022-10-17T10:05:09.284Z,88.07
2022-10-17T10:07:37.725Z,87.65
2022-10-17T10:10:05.687Z,88.35
2022-10-17T10:12:33.808Z,88.14
2022-10-17T10:15:00.675Z,88.24
2022-10-17T10:17:35.905Z,88.53
2022-10-17T10:20:03.237Z,88.44
2022-10-17T10:22:29.751Z,89.06
2022-10-17T10:25:14.658Z,89.11
2022-10-17T10:27:42.091Z,89.26
2022-10-17T10:30:17.479Z,89.20
2022-10-17T10:32:45.526Z,89.29
2022-10-17T10:35:22.923Z,88.72
2022-10-17T10:37:54.067Z,88.55
2022-10-17T10:40:23.329Z,88.69
2022-10-17T10:42:51.186Z,88.87
2022-10-17T10:45:46.903Z,88.46
2022-10-17T10:48:21.610Z,88.59
2022-10-17T10:51:06.836Z,88.62
2022-10-17T10:53:57.290Z,88.75
2022-10-17T10:56:39.228Z,88.76
2022-10-17T10:59:29.304Z,88.83
2022-10-17T11:02:09.937Z,88.59
2022-10-17T11:04:46.122Z,88.56
2022-10-17T11:07:12.418Z,88.94
2022-10-17T11:09:54.500Z,89.30
2022-10-17T11:12:24.728Z,88.87
2022-10-17T11:14:51.120Z,88.82
2022-10-17T11:17:36.375Z,88.35
2022-10-17T11:20:10.341Z,88.51
2022-10-17T11:22:48.102Z,88.27
2022-10-17T11:25:34.792Z,88.45
2022-10-17T11:28:04.955Z,88.79
2022-10-17T11:30:39.673Z,88.11
2022-10-17T11:33:07.002Z,88.14
2022-10-17T11:35:36.518Z,88.13
2022-10-17T11:38:18.553Z,88.06
2022-10-17T11:40:48.808Z,88.22
2022-10-17T11:43:21.030Z,87.91
2022-10-17T11:45:50.123Z,87.76
2022-10-17T11:48:16.481Z,87.74
2022-10-17T11:53:40.669Z,87.17
2022-10-17T11:56:10.145Z,87.46
2022-10-17T11:58:43.447Z,86.87
2022-10-17T12:01:16.369Z,86.77
2022-10-17T12:03:46.774Z,87.06
2022-10-17T12:06:13.059Z,87.23
2022-10-17T12:08:59.650Z,86.95
2022-10-17T12:11:45.689Z,86.47
2022-10-17T12:14:31.078Z,86.30
2022-10-17T12:16:57.709Z,86.72
2022-10-17T12:19:25.437Z,86.57
2022-10-17T12:21:54.958Z,86.60
2022-10-17T12:24:35.920Z,86.72
2022-10-17T12:27:31.960Z,86.53
2022-10-17T12:29:59.854Z,86.84
2022-10-17T12:32:30.182Z,86.90
2022-10-17T12:34:59.683Z,86.98
2022-10-17T12:37:45.027Z,86.76
2022-10-17T12:40:30.153Z,86.84
2022-10-17T12:42:56.445Z,86.55
2022-10-17T12:45:41.486Z,86.49
2022-10-17T12:48:10.952Z,86.34
2022-10-17T12:50:58.337Z,86.17
2022-10-17T12:53:36.891Z,86.24
2022-10-17T12:56:03.502Z,86.05
2022-10-17T12:58:30.730Z,86.13
2022-10-17T13:01:22.547Z,85.92
2022-10-17T13:03:48.144Z,86.46
2022-10-17T13:06:21.078Z,86.08
2022-10-17T13:08:54.260Z,86.37
2022-10-17T13:11:23.363Z,86.54
2022-10-17T13:13:52.067Z,86.69
2022-10-17T13:16:35.053Z,86.25
2022-10-17T13:19:03.280Z,86.60
2022-10-17T13:21:29.602Z,85.53
2022-10-17T13:23:56.296Z,84.51
2022-10-17T13:26:27.898Z,85.17
2022-10-17T13:29:01.561Z,84.92
2022-10-17T13:31:30.770Z,85.66
2022-10-17T13:33:58.505Z,85.52
2022-10-17T13:36:25.550Z,85.69
2022-10-17T13:38:52.049Z,85.52
2022-10-17T13:41:35.392Z,85.68
2022-10-17T13:44:03.887Z,85.74
2022-10-17T13:46:37.985Z,85.92
2022-10-17T13:49:10.616Z,85.80
2022-10-17T13:51:37.811Z,86.25
2022-10-17T13:54:16.960Z,86.26
2022-10-17T13:56:43.313Z,86.04
2022-10-17T13:59:21.634Z,86.18
2022-10-17T14:01:49.795Z,86.00
2022-10-17T14:04:20.229Z,86.02
2022-10-17T14:06:49.673Z,85.75
2022-10-17T14:09:21.692Z,85.92
2022-10-17T14:11:56.952Z,85.82
2022-10-17T14:14:26.033Z,85.56
2022-10-17T14:16:52.630Z,85.64
2022-10-17T14:19:25.169Z,85.62
2022-10-17T14:21:56.836Z,85.54
2022-10-17T14:24:23.167Z,85.39
2022-10-17T14:26:54.217Z,85.65
2022-10-17T14:29:24.193Z,85.89
2022-10-17T14:31:56.374Z,85.99
2022-10-17T14:34:27.631Z,85.54
2022-10-17T14:36:54.544Z,85.87
2022-10-17T14:39:23.416Z,85.89
2022-10-17T14:41:50.910Z,85.69
2022-10-17T14:44:37.603Z,85.34
2022-10-17T14:47:30.763Z,84.98
2022-10-17T14:50:01.797Z,85.47
2022-10-17T14:52:29.473Z,85.21
2022-10-17T14:54:56.550Z,85.03
2022-10-17T14:57:31.719Z,85.28
2022-10-17T14:59:58.511Z,84.97
2022-10-17T15:02:25.788Z,84.81
2022-10-17T15:04:52.699Z,85.02
2022-10-17T15:07:20.923Z,84.89
2022-10-17T15:09:48.772Z,84.95
2022-10-17T15:12:16.829Z,84.74
2022-10-17T15:14:44.003Z,84.73
2022-10-17T15:17:12.722Z,84.67
2022-10-17T15:19:40.036Z,84.80
2022-10-17T15:22:06.348Z,84.44
2022-10-17T15:24:32.683Z,84.19
2022-10-17T15:26:59.022Z,83.98
2022-10-17T15:29:25.660Z,84.50
2022-10-17T15:31:52.074Z,84.42
2022-10-17T15:34:18.368Z,84.15
2022-10-17T15:36:49.130Z,84.65
2022-10-17T15:39:15.453Z,84.29
2022-10-17T15:41:41.747Z,84.43
2022-10-17T15:44:08.036Z,84.40
2022-10-17T15:46:35.312Z,84.33
2022-10-17T15:49:03.883Z,84.41
2022-10-17T15:51:30.412Z,84.63
2022-10-17T15:54:01.492Z,84.67
2022-10-17T15:56:30.522Z,85.10
2022-10-17T15:58:57.162Z,84.93
2022-10-17T16:01:25.065Z,84.66
2022-10-17T16:03:51.649Z,84.87
2022-10-17T16:06:18.687Z,85.17
2022-10-17T16:08:46.054Z,85.06
2022-10-17T16:11:19.731Z,85.67
2022-10-17T16:13:50.107Z,85.58
2022-10-17T16:16:16.935Z,85.66
2022-10-17T16:18:43.266Z,85.69
2022-10-17T16:21:12.704Z,85.18
2022-10-17T16:23:39.069Z,85.39
2022-10-17T16:26:05.590Z,85.67
2022-10-17T16:28:31.966Z,85.30
2022-10-17T16:30:58.448Z,85.56
2022-10-17T16:33:24.867Z,85.47
2022-10-17T16:35:51.517Z,85.52
2022-10-17T16:38:17.843Z,85.33
2022-10-17T16:40:44.386Z,85.43
2022-10-17T16:43:12.046Z,85.67
2022-10-17T16:45:38.909Z,85.69
2022-10-17T16:48:05.735Z,85.64
2022-10-17T16:50:36.003Z,85.72
2022-10-17T16:53:03.850Z,85.96
2022-10-17T16:55:30.167Z,86.04
2022-10-17T16:57:56.876Z,86.09
2022-10-17T17:00:23.243Z,86.11
2022-10-17T17:02:49.731Z,85.96
2022-10-17T17:05:16.034Z,85.93
2022-10-17T17:07:42.493Z,86.66
2022-10-17T17:10:08.909Z,86.47
2022-10-17T17:12:35.511Z,86.27
2022-10-17T17:15:01.886Z,86.35
2022-10-17T17:17:49.528Z,85.85
2022-10-17T17:20:17.526Z,86.44
2022-10-17T17:22:43.835Z,86.50
2022-10-17T17:25:10.182Z,86.88
2022-10-17T17:27:36.469Z,86.97
2022-10-17T17:30:02.819Z,86.60
2022-10-17T17:32:29.154Z,86.87
2022-10-17T17:34:55.480Z,87.03
2022-10-17T17:37:21.789Z,87.50
2022-10-17T17:39:48.084Z,86.87
2022-10-17T17:42:14.390Z,87.07
2022-10-17T17:44:40.686Z,87.32
2022-10-17T17:47:07.035Z,87.05
2022-10-17T17:49:33.482Z,87.30
2022-10-17T17:51:59.943Z,87.38
2022-10-17T17:54:26.441Z,87.93
2022-10-17T17:56:52.867Z,87.26
2022-10-17T17:59:19.640Z,87.38
2022-10-17T18:01:46.030Z,87.37
2022-10-17T18:04:12.401Z,87.31
2022-10-17T18:06:39.262Z,87.49
2022-10-17T18:09:06.538Z,87.55
2022-10-17T18:11:32.925Z,87.53
2022-10-17T18:14:00.781Z,87.63
2022-10-17T18:16:28.980Z,87.45
2022-10-17T18:18:55.468Z,87.39
2022-10-17T18:21:21.829Z,87.92
2022-10-17T18:23:48.596Z,87.59
2022-10-17T18:26:15.362Z,87.85
2022-10-17T18:31:16.241Z,87.59
2022-10-17T18:33:45.342Z,87.51
2022-10-17T18:36:12.790Z,87.63
2022-10-17T18:38:39.090Z,87.67
2022-10-17T18:41:12.776Z,87.52
2022-10-17T18:43:40.477Z,87.63
2022-10-17T18:46:12.382Z,87.45
2022-10-17T18:48:42.193Z,87.25
2022-10-17T18:51:09.595Z,87.30
2022-10-17T18:53:38.817Z,87.22
2022-10-17T18:56:05.284Z,87.41
2022-10-17T18:58:31.611Z,87.25
2022-10-17T19:01:02.305Z,87.20
2022-10-17T19:03:28.593Z,87.25
2022-10-17T19:05:56.757Z,87.39
2022-10-17T19:08:25.714Z,87.36
2022-10-17T19:10:52.033Z,87.41
2022-10-17T19:13:21.502Z,87.42
2022-10-17T19:15:48.180Z,87.20
2022-10-17T19:18:14.589Z,87.31
2022-10-17T19:20:40.931Z,87.41
2022-10-17T19:23:07.263Z,87.67
2022-10-17T19:25:33.975Z,87.59
2022-10-17T19:28:00.446Z,87.44
2022-10-17T19:30:26.877Z,87.37
2022-10-17T19:32:53.410Z,87.46
2022-10-17T19:35:19.719Z,87.25
2022-10-17T19:37:46.036Z,87.32
2022-10-17T19:40:12.663Z,87.21
2022-10-17T19:42:39.240Z,87.02
2022-10-17T19:45:05.934Z,87.28
2022-10-17T19:47:32.405Z,87.27
2022-10-17T19:49:58.826Z,87.21
2022-10-17T19:52:25.137Z,87.23
2022-10-17T19:54:51.429Z,87.20
2022-10-17T19:57:18.127Z,87.54
2022-10-17T19:59:44.518Z,87.43
2022-10-17T20:02:12.294Z,87.26
2022-10-17T20:04:49.534Z,87.36
2022-10-17T20:07:24.984Z,87.40
2022-10-17T20:09:51.313Z,87.31
2022-10-17T20:12:17.616Z,87.26
2022-10-17T20:14:43.923Z,87.45
2022-10-17T20:17:10.271Z,87.41
2022-10-17T20:19:36.546Z,87.55
2022-10-17T20:22:02.904Z,87.40
2022-10-17T20:24:29.376Z,87.48
2022-10-17T20:26:56.246Z,87.66
2022-10-17T20:29:23.983Z,87.78
2022-10-17T20:31:50.346Z,87.66
2022-10-17T20:34:17.627Z,87.52
2022-10-17T20:36:44.070Z,87.44
2022-10-17T20:39:12.007Z,87.58
2022-10-17T20:41:38.522Z,87.69
2022-10-17T20:44:06.693Z,87.70
2022-10-17T20:46:37.645Z,87.54
2022-10-17T20:49:06.075Z,87.49
2022-10-17T20:51:32.949Z,87.70
2022-10-17T20:53:59.466Z,87.53
2022-10-17T20:56:27.116Z,87.51
2022-10-17T20:58:55.680Z,87.12
2022-10-17T21:01:22.477Z,87.14
2022-10-17T21:03:49.678Z,87.40
2022-10-17T21:06:16.638Z,87.54
2022-10-17T21:08:43.577Z,87.65
2022-10-17T21:11:23.881Z,87.50
2022-10-17T21:13:55.150Z,87.65
2022-10-17T21:16:21.901Z,87.86
2022-10-17T21:18:49.302Z,87.86
2022-10-17T21:21:20.323Z,87.89
2022-10-17T21:23:47.793Z,87.98
2022-10-17T21:26:14.802Z,87.99
2022-10-17T21:28:41.578Z,88.08
2022-10-17T21:31:12.728Z,87.65
2022-10-17T21:33:39.593Z,88.12
2022-10-17T21:36:06.332Z,88.24
2022-10-17T21:38:34.064Z,88.27
2022-10-17T21:41:00.371Z,88.25
2022-10-17T21:43:26.669Z,88.42
2022-10-17T21:45:52.987Z,87.97
2022-10-17T21:48:19.439Z,87.94
2022-10-17T21:50:45.792Z,88.18
2022-10-17T21:53:12.156Z,87.89
2022-10-17T21:55:38.517Z,88.15
2022-10-17T21:58:05.175Z,88.35
2022-10-17T22:00:31.523Z,88.50
2022-10-17T22:02:57.858Z,88.54
2022-10-17T22:05:24.190Z,88.55
2022-10-17T22:07:50.876Z,88.49
2022-10-17T22:10:17.196Z,88.60
2022-10-17T22:12:43.548Z,88.59
2022-10-17T22:15:09.973Z,88.48
2022-10-17T22:17:36.305Z,88.70
2022-10-17T22:20:02.729Z,88.36
2022-10-17T22:22:30.402Z,88.76
2022-10-17T22:24:56.996Z,89.08
2022-10-17T22:27:23.461Z,89.12
2022-10-17T22:29:49.961Z,88.89
2022-10-17T22:32:20.081Z,88.16
2022-10-17T22:34:48.959Z,88.45
2022-10-17T22:37:15.352Z,88.70
2022-10-17T22:39:41.666Z,88.96
2022-10-17T22:42:08.008Z,88.74
2022-10-17T22:44:34.300Z,87.66
2022-10-17T22:47:00.590Z,88.19
2022-10-17T22:49:27.378Z,88.33
2022-10-17T22:51:53.745Z,88.10
2022-10-17T22:54:20.481Z,88.10
2022-10-17T22:56:47.262Z,88.19
2022-10-17T22:59:13.910Z,88.05
2022-10-17T23:01:40.242Z,88.28
2022-10-17T23:04:07.111Z,88.18
2022-10-17T23:06:33.517Z,88.42
2022-10-17T23:09:01.069Z,88.52
2022-10-17T23:11:30.097Z,88.43
2022-10-17T23:13:57.633Z,88.33
2022-10-17T23:16:23.997Z,88.91
2022-10-17T23:18:52.888Z,88.75
2022-10-17T23:21:21.086Z,89.14
2022-10-17T23:23:49.101Z,89.35
2022-10-17T23:26:18.791Z,89.35
2022-10-17T23:28:45.943Z,89.56
2022-10-17T23:31:16.826Z,89.71
2022-10-17T23:33:44.993Z,89.70
2022-10-17T23:36:13.034Z,89.53
2022-10-17T23:38:41.650Z,89.56
2022-10-17T23:41:08.527Z,89.59
2022-10-17T23:43:34.992Z,89.66
2022-10-17T23:46:02.181Z,89.24
2022-10-17T23:48:29.288Z,89.25
2022-10-17T23:50:56.085Z,89.34
2022-10-17T23:53:23.441Z,89.64
2022-10-17T23:55:50.265Z,89.50
2022-10-17T23:58:17.494Z,89.47
